Saragosa, Texas
Current Conditions -  °F | °C
As of 10:35 AM on Monday 24 Nov 2014 (Local Time) from KPEQ Reporting Station
Clear Clear  
Wind Chill: 47°   Ceiling: Unl
Heat Index: 47°   Visibility: 10mi
Dew Point: 22°   Wind: 3mph
Humidity: 37%   Direction: 340°NNW
Pressure: 30.17"   Gusts: NA
Location:  31.02°N, 103.66°W
Report Text: KPEQ 241635Z AUTO 34003KT 10SM CLR 09/M05 A3017 RMK AO2 T00861054
Loading
Personal Weather Stations






























Interactive Weather Map New forecast layout! Learn more

10-Day Weather Forecast

Advertisements
Track Severe Weather on mobile